Time;durP1;ratioP1;P1;durP2;ratioP2;P2;SDS_P1;SDS_P2;PMS_P1;PMS_P2;Temp;Humidity;BMP_temperature;BMP_pressure;BME280_temperature;BME280_humidity;BME280_pressure;Samples;Min_cycle;Max_cycle;Signal;HPM_P1;HPM_P2
2022/02/24 00:00:15;;;;;;;8.30;2.63;;;5.90;93.80;;;;;;5033453;28;20210;-63
2022/02/24 00:02:42;;;;;;;3.47;1.73;;;5.90;93.70;;;;;;5033425;28;20187;-63
2022/02/24 00:05:10;;;;;;;5.68;1.55;;;5.90;93.80;;;;;;5032858;28;20209;-63
2022/02/24 00:07:37;;;;;;;9.10;1.95;;;6.00;93.90;;;;;;5032973;28;20693;-63
2022/02/24 00:10:05;;;;;;;5.88;2.70;;;6.00;93.80;;;;;;5033600;28;20205;-64
2022/02/24 00:12:33;;;;;;;4.30;2.20;;;6.00;93.70;;;;;;5033837;28;20198;-63
2022/02/24 00:15:00;;;;;;;2.88;1.90;;;6.00;93.60;;;;;;5032990;28;20241;-63
2022/02/24 00:17:28;;;;;;;7.97;2.45;;;6.10;93.50;;;;;;5033191;28;20206;-63
2022/02/24 00:19:55;;;;;;;6.82;2.20;;;6.10;93.40;;;;;;5033084;28;20570;-63
2022/02/24 00:22:23;;;;;;;5.38;2.08;;;6.20;93.30;;;;;;5032755;28;20688;-63
2022/02/24 00:24:50;;;;;;;3.30;2.20;;;6.20;93.30;;;;;;5035305;28;20209;-63
2022/02/24 00:27:17;;;;;;;7.13;2.25;;;6.20;93.30;;;;;;5037129;28;20226;-63
2022/02/24 00:29:44;;;;;;;3.53;1.80;;;6.20;93.40;;;;;;5037243;28;20198;-63
2022/02/24 00:32:11;;;;;;;4.22;2.15;;;6.20;93.40;;;;;;5037094;28;20612;-62
2022/02/24 00:34:40;;;;;;;9.25;2.00;;;6.20;93.50;;;;;;5036672;28;20724;-63
2022/02/24 00:37:07;;;;;;;1.85;1.60;;;6.30;93.60;;;;;;5036726;28;20225;-63
2022/02/24 00:39:34;;;;;;;5.93;1.90;;;6.30;93.50;;;;;;5036681;28;20202;-63
2022/02/24 00:42:01;;;;;;;5.05;1.98;;;6.40;93.50;;;;;;5036985;28;20213;-63
2022/02/24 00:44:28;;;;;;;8.40;2.35;;;6.40;93.40;;;;;;5036837;28;20565;-63
2022/02/24 00:46:55;;;;;;;5.85;1.83;;;6.50;93.30;;;;;;5036432;28;20687;-62
2022/02/24 00:49:23;;;;;;;8.73;2.70;;;6.50;93.30;;;;;;5036949;28;20571;-62
2022/02/24 00:51:52;;;;;;;5.13;2.05;;;6.60;93.20;;;;;;5036891;28;20229;-64
2022/02/24 00:54:19;;;;;;;5.65;2.00;;;6.70;93.20;;;;;;5036380;28;20622;-64
2022/02/24 00:56:46;;;;;;;3.47;1.80;;;6.70;93.10;;;;;;5036767;28;20233;-62
2022/02/24 00:59:13;;;;;;;3.30;1.70;;;6.70;93.10;;;;;;5036849;28;20210;-62
2022/02/24 01:01:41;;;;;;;6.82;2.50;;;6.80;93.00;;;;;;5036313;28;20701;-63
2022/02/24 01:04:08;;;;;;;6.60;1.77;;;6.80;92.90;;;;;;5036811;28;20309;-63
2022/02/24 01:06:35;;;;;;;4.82;2.13;;;6.80;92.80;;;;;;5036412;28;20710;-63
2022/02/24 01:09:04;;;;;;;7.95;3.20;;;6.90;92.80;;;;;;5036378;28;20212;-63
2022/02/24 01:11:31;;;;;;;4.53;2.05;;;6.90;92.70;;;;;;5036162;28;20674;-63
2022/02/24 01:13:58;;;;;;;5.32;2.35;;;6.90;92.70;;;;;;5036705;28;20222;-62
2022/02/24 01:16:25;;;;;;;6.38;2.20;;;7.00;92.70;;;;;;5036492;28;20714;-63
2022/02/24 01:18:53;;;;;;;3.95;2.00;;;7.00;92.80;;;;;;5036861;28;20607;-63
2022/02/24 01:21:20;;;;;;;5.68;2.05;;;7.00;92.80;;;;;;5036281;28;20206;-64
2022/02/24 01:23:47;;;;;;;3.58;2.40;;;7.00;92.80;;;;;;5036305;28;20206;-64
2022/02/24 01:26:15;;;;;;;4.55;2.15;;;7.00;92.90;;;;;;5043002;28;20222;-63
2022/02/24 01:28:42;;;;;;;5.20;1.98;;;7.00;92.90;;;;;;5042390;28;20207;-63
2022/02/24 01:31:09;;;;;;;3.83;1.95;;;7.00;92.90;;;;;;5046562;28;20206;-62
2022/02/24 01:33:36;;;;;;;6.85;2.70;;;7.00;93.00;;;;;;5043529;28;20213;-63
2022/02/24 01:36:04;;;;;;;4.18;2.25;;;7.10;93.10;;;;;;5040204;28;20218;-64
2022/02/24 01:38:31;;;;;;;14.07;2.05;;;7.10;93.00;;;;;;5036222;28;20210;-64
2022/02/24 01:40:58;;;;;;;5.30;2.10;;;7.10;93.00;;;;;;5036289;28;20253;-63
2022/02/24 01:43:26;;;;;;;6.38;2.25;;;7.10;93.00;;;;;;5036155;28;20202;-63
2022/02/24 01:45:53;;;;;;;5.18;2.20;;;7.10;93.10;;;;;;5035584;28;20237;-63
2022/02/24 01:48:20;;;;;;;5.88;2.65;;;7.10;93.10;;;;;;5035817;28;20206;-63
2022/02/24 01:50:47;;;;;;;5.93;2.53;;;7.10;93.10;;;;;;5035806;28;20209;-64
2022/02/24 01:53:15;;;;;;;3.75;2.25;;;7.10;93.00;;;;;;5035742;28;20670;-62
2022/02/24 01:55:42;;;;;;;5.78;2.50;;;7.10;92.90;;;;;;5035781;28;20234;-63
2022/02/24 01:58:10;;;;;;;4.65;2.20;;;7.10;93.00;;;;;;5036159;28;20377;-64
2022/02/24 02:00:40;;;;;;;3.45;2.20;;;7.10;93.10;;;;;;5036119;28;20218;-63
2022/02/24 02:03:07;;;;;;;6.38;2.60;;;7.00;93.10;;;;;;5035756;28;20250;-65
2022/02/24 02:05:34;;;;;;;7.30;3.10;;;7.00;93.20;;;;;;5035361;28;20236;-63
2022/02/24 02:08:03;;;;;;;6.47;2.20;;;7.00;93.30;;;;;;5035236;28;20213;-63
2022/02/24 02:10:30;;;;;;;10.73;3.22;;;7.00;93.30;;;;;;5035245;28;20694;-62
2022/02/24 02:12:58;;;;;;;6.15;2.60;;;7.00;93.40;;;;;;5035551;28;20203;-63
2022/02/24 02:15:25;;;;;;;4.63;2.17;;;7.00;93.40;;;;;;5035377;28;20234;-63
2022/02/24 02:17:53;;;;;;;5.93;2.30;;;7.00;93.50;;;;;;5035144;28;20198;-63
2022/02/24 02:20:21;;;;;;;5.30;2.22;;;7.00;93.50;;;;;;5035333;28;20213;-63
2022/02/24 02:22:52;;;;;;;5.13;2.20;;;7.00;93.60;;;;;;5035318;28;20206;-63
2022/02/24 02:25:20;;;;;;;2.95;1.88;;;7.00;93.50;;;;;;5035011;28;20226;-63
2022/02/24 02:27:50;;;;;;;4.32;2.35;;;7.00;93.50;;;;;;5035095;28;20623;-64
2022/02/24 02:30:17;;;;;;;5.47;2.50;;;7.00;93.50;;;;;;5035015;28;20242;-63
2022/02/24 02:32:44;;;;;;;5.68;2.42;;;7.00;93.60;;;;;;5035317;28;20202;-63
2022/02/24 02:35:12;;;;;;;4.85;1.85;;;7.00;93.60;;;;;;5036955;28;20223;-63
2022/02/24 02:37:39;;;;;;;4.05;2.25;;;7.00;93.50;;;;;;5035670;28;20206;-63
2022/02/24 02:40:09;;;;;;;10.15;3.47;;;7.00;93.50;;;;;;5034691;28;20203;-63
2022/02/24 02:42:37;;;;;;;6.93;2.30;;;7.00;93.60;;;;;;5042342;28;20639;-63
2022/02/24 02:45:06;;;;;;;4.32;2.30;;;7.00;93.60;;;;;;5044093;28;20353;-63
2022/02/24 02:47:33;;;;;;;5.15;2.45;;;7.00;93.60;;;;;;5047431;28;20191;-63
2022/02/24 02:50:00;;;;;;;4.15;2.05;;;7.00;93.50;;;;;;5047374;28;20218;-63
2022/02/24 02:52:27;;;;;;;2.38;1.80;;;7.00;93.50;;;;;;5047777;28;20210;-63
2022/02/24 02:55:02;;;;;;;4.95;2.72;;;7.00;93.50;;;;;;5046679;28;20254;-64
2022/02/24 02:57:31;;;;;;;3.67;1.90;;;7.00;93.60;;;;;;5042206;28;20190;-63
2022/02/24 02:59:58;;;;;;;9.23;3.28;;;7.00;93.50;;;;;;5039730;28;20203;-63
2022/02/24 03:02:25;;;;;;;5.10;1.90;;;7.00;93.50;;;;;;5039429;28;20202;-63
2022/02/24 03:04:53;;;;;;;6.78;2.58;;;7.00;93.50;;;;;;5038244;28;20202;-63
2022/02/24 03:07:20;;;;;;;4.43;2.55;;;7.00;93.60;;;;;;5036981;28;20226;-63
2022/02/24 03:09:47;;;;;;;4.57;2.20;;;7.00;93.60;;;;;;5039090;28;20206;-63
2022/02/24 03:12:14;;;;;;;2.15;1.88;;;7.00;93.60;;;;;;5039157;28;20205;-63
2022/02/24 03:14:43;;;;;;;4.93;2.03;;;7.00;93.70;;;;;;5036145;28;20223;-63
2022/02/24 03:17:10;;;;;;;9.05;2.15;;;7.00;93.70;;;;;;5037779;28;20237;-64
2022/02/24 03:19:38;;;;;;;5.95;2.60;;;7.00;93.60;;;;;;5041349;28;20209;-64
2022/02/24 03:22:08;;;;;;;4.80;2.13;;;7.10;93.70;;;;;;5041849;28;20202;-64
2022/02/24 03:24:35;;;;;;;4.38;2.13;;;7.10;93.50;;;;;;5043678;28;20191;-63
2022/02/24 03:27:03;;;;;;;6.22;2.60;;;7.00;93.40;;;;;;5041911;28;20223;-63
2022/02/24 03:29:31;;;;;;;4.40;1.95;;;7.00;93.50;;;;;;5037831;28;20609;-64
2022/02/24 03:32:00;;;;;;;7.22;2.30;;;7.00;93.60;;;;;;5034669;28;20609;-63
2022/02/24 03:34:27;;;;;;;6.63;2.50;;;7.00;93.70;;;;;;5033858;28;20202;-63
2022/02/24 03:36:54;;;;;;;5.65;2.30;;;7.00;93.70;;;;;;5033372;28;20218;-64
2022/02/24 03:39:21;;;;;;;3.60;1.80;;;7.00;93.80;;;;;;5033380;28;20214;-64
2022/02/24 03:41:48;;;;;;;7.32;2.70;;;7.00;93.80;;;;;;5033429;28;20202;-62
2022/02/24 03:44:16;;;;;;;2.92;2.50;;;7.00;93.80;;;;;;5033918;28;20222;-63
2022/02/24 03:46:43;;;;;;;7.80;2.40;;;7.00;93.90;;;;;;5033277;28;20226;-63
2022/02/24 03:49:11;;;;;;;7.82;2.55;;;7.00;94.00;;;;;;5033748;28;20678;-62
2022/02/24 03:51:38;;;;;;;3.50;2.25;;;7.10;93.90;;;;;;5033797;28;20202;-63
2022/02/24 03:54:05;;;;;;;8.45;3.00;;;7.10;93.80;;;;;;5033427;28;20206;-63
2022/02/24 03:56:33;;;;;;;3.78;2.00;;;7.20;93.70;;;;;;5033008;28;20237;-62
2022/02/24 03:59:00;;;;;;;3.38;2.30;;;7.30;93.60;;;;;;5033111;28;20198;-62
2022/02/24 04:01:27;;;;;;;6.47;2.45;;;7.30;93.40;;;;;;5033142;28;20203;-64
2022/02/24 04:03:54;;;;;;;4.00;2.60;;;7.40;93.30;;;;;;5033536;28;20209;-63
2022/02/24 04:09:21;;;;;;;3.30;2.20;;;7.50;92.90;;;;;;5091265;27;20545;-63
2022/02/24 04:11:48;;;;;;;4.40;2.10;;;7.60;92.90;;;;;;5090372;28;20196;-63
2022/02/24 04:14:16;;;;;;;5.07;2.35;;;7.60;92.80;;;;;;5090908;28;20566;-63
2022/02/24 04:16:43;;;;;;;4.90;2.42;;;7.60;92.70;;;;;;5090303;28;20224;-62
2022/02/24 04:19:10;;;;;;;4.03;2.00;;;7.60;92.80;;;;;;5090298;28;20192;-63
2022/02/24 04:21:37;;;;;;;5.47;2.50;;;7.60;92.80;;;;;;5092034;28;20200;-64
2022/02/24 04:24:05;;;;;;;5.20;2.72;;;7.60;92.80;;;;;;5090498;28;20205;-64
2022/02/24 04:26:34;;;;;;;3.88;2.30;;;7.60;92.80;;;;;;5090245;28;20228;-62
2022/02/24 04:29:02;;;;;;;6.03;2.20;;;7.70;92.90;;;;;;5090051;28;20714;-63
2022/02/24 04:31:29;;;;;;;7.18;2.60;;;7.70;93.00;;;;;;5090484;28;20200;-63
2022/02/24 04:33:57;;;;;;;4.65;2.40;;;7.70;92.90;;;;;;5090247;28;20207;-63
2022/02/24 04:36:24;;;;;;;3.42;2.00;;;7.70;92.90;;;;;;5090420;28;20220;-63
2022/02/24 04:38:51;;;;;;;3.22;2.30;;;7.70;92.90;;;;;;5092423;28;20200;-62
2022/02/24 04:41:18;;;;;;;5.32;2.60;;;7.70;92.70;;;;;;5093181;28;20200;-63
2022/02/24 04:43:46;;;;;;;6.68;2.40;;;7.70;92.90;;;;;;5090272;28;20204;-63
2022/02/24 04:46:14;;;;;;;7.20;2.88;;;7.70;92.50;;;;;;5090050;28;20224;-63
2022/02/24 04:48:41;;;;;;;5.15;2.00;;;7.80;92.40;;;;;;5090065;28;20246;-63
2022/02/24 04:51:08;;;;;;;3.53;2.42;;;7.80;92.20;;;;;;5089840;28;20209;-63
2022/02/24 04:53:35;;;;;;;6.90;2.75;;;7.80;92.00;;;;;;5089696;28;20201;-62
2022/02/24 04:56:02;;;;;;;3.55;2.08;;;7.90;91.90;;;;;;5090147;28;20228;-63
2022/02/24 04:58:29;;;;;;;4.55;2.60;;;7.90;91.90;;;;;;5089550;28;20669;-64
2022/02/24 05:00:58;;;;;;;4.38;2.40;;;7.90;91.70;;;;;;5089457;28;20578;-63
2022/02/24 05:03:25;;;;;;;4.60;2.40;;;7.90;91.50;;;;;;5089476;28;20669;-62
2022/02/24 05:05:52;;;;;;;6.75;2.58;;;7.90;91.50;;;;;;5089609;28;20228;-63
2022/02/24 05:08:19;;;;;;;3.40;2.55;;;8.00;91.20;;;;;;5089476;28;20232;-64
2022/02/24 05:10:46;;;;;;;4.05;2.35;;;8.00;91.30;;;;;;5089782;28;20201;-63
2022/02/24 05:13:13;;;;;;;4.20;2.30;;;8.00;91.00;;;;;;5089685;28;20208;-63
2022/02/24 05:15:41;;;;;;;5.05;3.13;;;8.00;90.90;;;;;;5089220;28;20716;-64
2022/02/24 05:18:10;;;;;;;6.38;2.67;;;8.00;90.90;;;;;;5089526;28;20200;-63
2022/02/24 05:20:37;;;;;;;3.80;2.10;;;8.00;91.00;;;;;;5076434;28;20201;-63
2022/02/24 05:23:04;;;;;;;4.50;2.33;;;8.00;90.90;;;;;;5075584;28;20699;-63
2022/02/24 05:25:34;;;;;;;4.95;2.25;;;8.00;90.80;;;;;;5075519;28;20229;-63
2022/02/24 05:28:06;;;;;;;5.38;3.17;;;8.00;90.70;;;;;;5075673;28;20621;-64
2022/02/24 05:30:34;;;;;;;5.90;2.40;;;8.00;90.80;;;;;;5075805;28;20223;-63
2022/02/24 05:33:01;;;;;;;3.65;2.20;;;8.00;90.70;;;;;;5075529;28;20208;-62
2022/02/24 05:35:29;;;;;;;5.43;2.40;;;8.00;90.70;;;;;;5075885;28;20224;-62
2022/02/24 05:37:56;;;;;;;6.32;2.03;;;8.00;90.80;;;;;;5075376;28;20200;-63
2022/02/24 05:40:23;;;;;;;7.20;2.97;;;8.00;90.80;;;;;;5076594;28;20227;-63
2022/02/24 05:42:51;;;;;;;5.55;2.30;;;8.00;90.80;;;;;;5077797;28;20205;-64
2022/02/24 05:45:18;;;;;;;6.75;2.60;;;8.00;90.80;;;;;;5077928;28;20247;-63
2022/02/24 05:47:45;;;;;;;6.70;2.45;;;8.00;90.80;;;;;;5078401;28;20225;-61
2022/02/24 05:50:12;;;;;;;4.82;2.03;;;8.00;90.70;;;;;;5076996;28;20295;-63
2022/02/24 05:52:41;;;;;;;3.90;1.90;;;8.00;90.70;;;;;;5077347;28;20201;-63
2022/02/24 05:55:09;;;;;;;2.75;2.10;;;8.00;90.70;;;;;;5076354;28;20215;-62
2022/02/24 05:57:36;;;;;;;6.72;2.40;;;8.00;90.50;;;;;;5075776;28;20201;-63
2022/02/24 06:00:04;;;;;;;8.15;3.10;;;8.00;90.50;;;;;;5075488;28;20209;-63
2022/02/24 06:02:31;;;;;;;7.40;2.50;;;8.00;90.50;;;;;;5076320;28;20210;-62
2022/02/24 06:04:58;;;;;;;4.88;2.50;;;8.00;90.50;;;;;;5076058;28;20744;-62
2022/02/24 06:07:25;;;;;;;5.00;2.38;;;8.00;90.40;;;;;;5076468;28;20749;-62
2022/02/24 06:09:54;;;;;;;8.98;2.72;;;8.10;90.40;;;;;;5076675;28;20682;-63
2022/02/24 06:12:21;;;;;;;5.13;2.75;;;8.00;90.30;;;;;;5076694;28;20216;-62
2022/02/24 06:14:48;;;;;;;5.00;2.45;;;8.00;90.50;;;;;;5079056;28;20212;-63
2022/02/24 06:17:15;;;;;;;7.60;2.65;;;8.00;90.50;;;;;;5080118;28;20726;-64
2022/02/24 06:19:43;;;;;;;5.07;2.20;;;8.00;90.50;;;;;;5081212;28;20224;-62
2022/02/24 06:22:10;;;;;;;6.00;2.40;;;8.00;90.50;;;;;;5081230;28;20293;-63
2022/02/24 06:24:37;;;;;;;8.88;3.22;;;8.00;90.50;;;;;;5079392;28;20197;-62
2022/02/24 06:27:06;;;;;;;3.55;2.10;;;8.00;90.60;;;;;;5080608;28;20580;-64
2022/02/24 06:29:34;;;;;;;7.00;2.20;;;8.00;90.70;;;;;;5080038;28;20247;-62
2022/02/24 06:32:01;;;;;;;4.28;2.45;;;8.10;90.80;;;;;;5078674;28;20205;-62
2022/02/24 06:34:29;;;;;;;6.53;2.50;;;8.00;90.90;;;;;;5079562;28;20197;-63
2022/02/24 06:36:56;;;;;;;5.75;2.22;;;8.10;90.90;;;;;;5078169;28;20248;-63
2022/02/24 06:39:23;;;;;;;7.45;3.08;;;8.10;91.10;;;;;;5075607;28;20200;-63
2022/02/24 06:41:50;;;;;;;6.25;3.03;;;8.10;90.80;;;;;;5076229;28;20660;-63
2022/02/24 06:44:18;;;;;;;5.25;2.70;;;8.10;90.80;;;;;;5075474;28;20203;-63
2022/02/24 06:46:45;;;;;;;3.20;2.72;;;8.10;91.20;;;;;;5076859;28;20224;-63
2022/02/24 06:49:13;;;;;;;5.63;2.50;;;8.10;90.80;;;;;;5076992;28;20217;-63
2022/02/24 06:51:40;;;;;;;5.93;2.78;;;8.10;90.90;;;;;;5076113;28;20232;-64
2022/02/24 06:54:07;;;;;;;7.18;2.78;;;8.20;90.90;;;;;;5074859;28;20205;-63
2022/02/24 06:56:35;;;;;;;5.13;2.90;;;8.20;90.90;;;;;;5074469;28;20258;-64
2022/02/24 06:59:02;;;;;;;7.20;3.05;;;8.20;91.00;;;;;;5074942;28;20208;-64
2022/02/24 07:01:30;;;;;;;4.32;2.90;;;8.30;90.90;;;;;;5074942;28;20205;-64
2022/02/24 07:03:57;;;;;;;7.25;3.08;;;8.30;90.90;;;;;;5075234;28;20197;-63
2022/02/24 07:06:24;;;;;;;7.25;2.53;;;8.30;90.80;;;;;;5074287;28;20442;-62
2022/02/24 07:08:51;;;;;;;8.80;2.92;;;8.30;90.70;;;;;;5074233;28;20225;-62
2022/02/24 07:11:19;;;;;;;6.18;3.13;;;8.30;90.90;;;;;;5074960;28;20204;-60
2022/02/24 07:13:46;;;;;;;8.27;3.25;;;8.30;90.90;;;;;;5076437;28;20231;-63
2022/02/24 07:16:13;;;;;;;5.45;2.80;;;8.30;91.00;;;;;;5081692;28;20251;-63
2022/02/24 07:18:41;;;;;;;7.18;2.97;;;8.30;90.90;;;;;;5088787;28;20201;-62
2022/02/24 07:21:08;;;;;;;6.68;2.70;;;8.40;91.00;;;;;;5086667;28;20197;-62
2022/02/24 07:23:36;;;;;;;3.95;2.45;;;8.30;90.70;;;;;;5084855;28;20212;-62
2022/02/24 07:26:03;;;;;;;4.55;2.60;;;8.40;90.80;;;;;;5081207;28;20228;-63
2022/02/24 07:28:31;;;;;;;10.68;3.20;;;8.40;90.60;;;;;;5074262;28;20224;-60
2022/02/24 07:30:58;;;;;;;3.53;2.47;;;8.40;90.50;;;;;;5077894;28;20205;-62
2022/02/24 07:33:25;;;;;;;7.63;2.67;;;8.40;90.70;;;;;;5082113;28;20235;-62
2022/02/24 07:35:53;;;;;;;4.60;2.45;;;8.40;90.70;;;;;;5081818;28;20228;-60
2022/02/24 07:38:20;;;;;;;5.15;3.38;;;8.40;90.60;;;;;;5080722;28;20197;-61
2022/02/24 07:40:48;;;;;;;7.22;2.75;;;8.40;90.50;;;;;;5080556;28;20196;-62
2022/02/24 07:43:15;;;;;;;7.43;2.85;;;8.50;90.60;;;;;;5077366;28;20212;-63
2022/02/24 07:45:42;;;;;;;7.72;2.65;;;8.40;90.50;;;;;;5075207;28;20697;-64
2022/02/24 07:48:09;;;;;;;3.92;2.80;;;8.50;90.50;;;;;;5074463;28;20653;-62
2022/02/24 07:50:36;;;;;;;5.65;3.17;;;8.50;90.30;;;;;;5074203;28;20240;-65
2022/02/24 07:53:05;;;;;;;5.45;2.50;;;8.50;90.40;;;;;;5074519;28;20215;-64
2022/02/24 07:55:32;;;;;;;5.93;2.88;;;8.50;90.40;;;;;;5074557;28;20220;-63
2022/02/24 07:57:59;;;;;;;10.52;3.20;;;8.50;90.50;;;;;;5076074;28;20201;-62
2022/02/24 08:00:26;;;;;;;5.38;2.75;;;8.50;90.50;;;;;;5076837;28;20197;-64
2022/02/24 08:02:55;;;;;;;3.83;2.40;;;8.50;90.50;;;;;;5074071;28;20664;-63
2022/02/24 08:05:22;;;;;;;4.45;2.70;;;8.50;90.60;;;;;;5073793;28;20297;-63
2022/02/24 08:07:49;;;;;;;7.82;3.97;;;8.50;90.50;;;;;;5073461;28;20220;-61
2022/02/24 08:10:17;;;;;;;6.20;3.65;;;8.50;90.70;;;;;;5074135;28;20221;-66
2022/02/24 08:12:44;;;;;;;7.07;2.22;;;8.50;90.80;;;;;;5073676;28;20209;-64
2022/02/24 08:15:14;;;;;;;7.63;2.92;;;8.50;90.80;;;;;;5073518;28;20212;-64
2022/02/24 08:17:42;;;;;;;8.45;2.60;;;8.50;90.90;;;;;;5073723;28;20665;-63
2022/02/24 08:20:10;;;;;;;6.57;2.30;;;8.50;90.90;;;;;;5073579;28;20201;-66
2022/02/24 08:22:38;;;;;;;4.60;2.50;;;8.60;90.80;;;;;;5073462;28;20208;-62
2022/02/24 08:25:08;;;;;;;6.70;2.53;;;8.60;90.80;;;;;;5073507;28;20205;-62
2022/02/24 08:27:37;;;;;;;4.18;2.00;;;8.60;90.80;;;;;;5073701;28;20204;-64
2022/02/24 08:30:06;;;;;;;4.70;2.58;;;8.60;90.80;;;;;;5073907;28;20216;-64
2022/02/24 08:32:33;;;;;;;5.60;2.53;;;8.60;90.80;;;;;;5073604;28;20597;-64
2022/02/24 08:35:01;;;;;;;5.70;3.10;;;8.70;90.70;;;;;;5073265;28;20201;-66
2022/02/24 08:37:28;;;;;;;6.07;2.90;;;8.80;90.70;;;;;;5073489;28;20205;-62
2022/02/24 08:39:55;;;;;;;3.95;2.53;;;8.90;90.40;;;;;;5073054;28;20691;-66
2022/02/24 08:42:25;;;;;;;6.82;2.90;;;8.90;90.50;;;;;;5073287;28;20670;-62
2022/02/24 08:44:54;;;;;;;3.40;2.30;;;9.00;90.10;;;;;;5073983;28;20213;-66
2022/02/24 08:47:21;;;;;;;4.25;3.13;;;9.00;90.00;;;;;;5073433;28;20604;-65
2022/02/24 08:49:49;;;;;;;3.50;2.40;;;9.20;90.00;;;;;;5073876;28;20221;-65
2022/02/24 08:52:16;;;;;;;5.93;2.40;;;9.20;89.00;;;;;;5073359;28;20204;-65
2022/02/24 08:54:43;;;;;;;4.75;2.20;;;9.20;88.50;;;;;;5076168;28;20211;-62
2022/02/24 08:57:10;;;;;;;4.15;2.20;;;9.30;88.50;;;;;;5077173;28;20217;-66
2022/02/24 08:59:38;;;;;;;7.10;2.38;;;9.30;88.30;;;;;;5080754;28;20197;-64
2022/02/24 09:02:07;;;;;;;6.10;2.53;;;9.30;88.40;;;;;;5082735;28;20292;-65
2022/02/24 09:04:34;;;;;;;6.25;2.65;;;9.40;88.50;;;;;;5080459;28;20447;-67
2022/02/24 09:07:01;;;;;;;6.38;2.50;;;9.40;88.10;;;;;;5077774;28;20603;-62
2022/02/24 09:09:28;;;;;;;6.70;2.53;;;9.50;88.10;;;;;;5077575;28;20208;-64
2022/02/24 09:11:55;;;;;;;5.70;2.50;;;9.50;88.20;;;;;;5078146;28;20212;-64
2022/02/24 09:14:22;;;;;;;4.13;2.53;;;9.50;87.70;;;;;;5077725;28;20450;-63
2022/02/24 09:16:49;;;;;;;6.10;2.80;;;9.60;88.10;;;;;;5076569;28;20221;-65
2022/02/24 09:19:17;;;;;;;4.55;2.35;;;9.60;88.30;;;;;;5076362;28;20193;-64
2022/02/24 09:21:45;;;;;;;4.75;1.98;;;9.70;88.00;;;;;;5076825;28;20216;-61
2022/02/24 09:24:12;;;;;;;5.72;2.33;;;9.60;87.50;;;;;;5076750;28;20197;-63
2022/02/24 09:26:39;;;;;;;7.33;2.60;;;9.70;87.70;;;;;;5076747;28;20231;-61
2022/02/24 09:29:07;;;;;;;4.43;2.90;;;9.60;87.70;;;;;;5076428;28;20475;-64
2022/02/24 09:31:35;;;;;;;4.95;2.00;;;9.70;87.80;;;;;;5078119;28;20221;-62
2022/02/24 09:34:02;;;;;;;5.70;2.40;;;9.70;87.80;;;;;;5085698;28;20201;-62
2022/02/24 09:36:31;;;;;;;6.57;2.97;;;9.70;88.00;;;;;;5081954;28;20472;-61
2022/02/24 09:38:58;;;;;;;9.80;2.97;;;9.70;87.70;;;;;;5076627;28;20450;-61
2022/02/24 09:41:26;;;;;;;8.27;2.80;;;9.70;87.50;;;;;;5076647;28;20447;-63
2022/02/24 09:43:55;;;;;;;5.50;2.77;;;9.80;87.80;;;;;;5076076;28;20973;-64
2022/02/24 09:46:22;;;;;;;5.75;2.00;;;9.90;87.30;;;;;;5084872;28;20474;-65
2022/02/24 09:48:50;;;;;;;7.47;2.60;;;10.00;86.00;;;;;;5087926;28;20208;-65
2022/02/24 09:51:18;;;;;;;4.93;2.17;;;10.10;85.50;;;;;;5085775;28;20443;-63
2022/02/24 09:53:49;;;;;;;4.40;2.30;;;10.10;84.70;;;;;;5084813;28;20435;-62
2022/02/24 09:56:18;;;;;;;5.10;1.80;;;10.20;84.00;;;;;;5083751;28;20451;-62
2022/02/24 09:58:46;;;;;;;2.87;2.10;;;10.30;82.80;;;;;;5083859;28;20442;-65
2022/02/24 10:01:14;;;;;;;3.57;2.40;;;10.50;82.20;;;;;;5085047;28;20448;-63
2022/02/24 10:03:46;;;;;;;2.87;2.10;;;10.60;80.90;;;;;;5080370;28;20446;-64
2022/02/24 10:06:16;;;;;;;4.90;1.80;;;10.70;79.20;;;;;;5080659;28;20470;-63
2022/02/24 10:08:47;;;;;;;4.10;2.03;;;10.90;78.20;;;;;;5084254;28;20502;-62
2022/02/24 10:11:21;;;;;;;5.10;2.40;;;11.00;76.40;;;;;;5081350;28;20416;-62
2022/02/24 10:14:03;;;;;;;3.17;1.97;;;11.20;75.60;;;;;;5078737;28;20424;-61
2022/02/24 10:16:31;;;;;;;3.47;1.73;;;11.30;73.70;;;;;;5076381;28;20510;-64
2022/02/24 10:18:58;;;;;;;4.63;2.70;;;11.50;73.00;;;;;;5082500;28;20448;-64
2022/02/24 10:23:54;;;;;;;3.53;2.00;;;11.70;70.00;;;;;;5013501;28;20996;-58
2022/02/24 10:26:23;;;;;;;5.00;2.00;;;11.70;69.70;;;;;;5014763;28;20454;-59
2022/02/24 10:28:52;;;;;;;4.90;2.40;;;11.80;69.20;;;;;;5014701;28;20994;-58
2022/02/24 10:31:22;;;;;;;6.87;2.80;;;11.80;68.20;;;;;;5014405;28;20434;-59
2022/02/24 10:33:51;;;;;;;9.00;2.83;;;11.80;67.80;;;;;;4995395;28;20439;-59
2022/02/24 10:36:21;;;;;;;2.90;2.10;;;11.90;67.70;;;;;;4995031;28;20859;-59
2022/02/24 10:39:03;;;;;;;3.47;2.00;;;12.00;66.70;;;;;;4994861;28;20423;-58
2022/02/24 10:41:32;;;;;;;5.17;2.30;;;12.10;66.80;;;;;;4994991;28;20435;-58
2022/02/24 10:44:27;;;;;;;3.40;2.00;;;12.10;66.60;;;;;;4995229;28;20466;-57
2022/02/24 10:47:10;;;;;;;3.60;2.00;;;12.20;66.20;;;;;;4949753;28;20465;-57
2022/02/24 10:49:39;;;;;;;4.90;1.70;;;12.20;65.60;;;;;;4994523;28;20475;-58
2022/02/24 10:52:14;;;;;;;4.27;2.07;;;12.30;65.90;;;;;;4994825;28;20470;-58
2022/02/24 10:54:44;;;;;;;5.73;2.40;;;12.30;65.60;;;;;;4995316;28;20438;-59
2022/02/24 10:57:17;;;;;;;3.13;1.87;;;12.40;65.00;;;;;;4994639;28;20810;-58
2022/02/24 10:59:44;;;;;;;2.90;2.07;;;12.40;64.30;;;;;;4994423;28;20459;-60
2022/02/24 11:02:12;;;;;;;4.00;1.93;;;12.40;64.30;;;;;;4994069;28;20967;-58
2022/02/24 11:04:40;;;;;;;4.73;2.30;;;12.40;63.90;;;;;;4994655;28;20851;-58
2022/02/24 11:07:08;;;;;;;4.50;1.87;;;12.40;63.90;;;;;;4994244;28;20534;-60
2022/02/24 11:09:37;;;;;;;5.30;2.13;;;12.50;63.70;;;;;;4993912;28;20529;-60
2022/02/24 11:12:09;;;;;;;4.43;2.17;;;12.60;63.70;;;;;;4994474;28;20475;-60
2022/02/24 11:14:39;;;;;;;5.37;1.80;;;12.60;63.20;;;;;;4994342;28;20463;-59
2022/02/24 11:17:09;;;;;;;8.63;2.47;;;12.60;62.70;;;;;;4993637;28;20577;-60
2022/02/24 11:19:37;;;;;;;2.63;1.83;;;12.70;63.00;;;;;;4994396;28;20247;-60
2022/02/24 11:22:05;;;;;;;2.60;1.70;;;12.80;62.80;;;;;;4994139;28;20487;-60
2022/02/24 11:24:32;;;;;;;8.13;2.20;;;12.80;62.20;;;;;;4994918;28;20786;-60
2022/02/24 11:27:05;;;;;;;4.20;2.40;;;12.90;62.10;;;;;;4994373;28;20462;-60
2022/02/24 11:29:43;;;;;;;3.20;1.90;;;12.80;61.70;;;;;;4994112;28;20467;-60
2022/02/24 11:32:12;;;;;;;2.60;1.80;;;12.90;61.80;;;;;;4993715;28;20476;-59
2022/02/24 11:35:06;;;;;;;2.13;1.90;;;13.10;62.20;;;;;;4993852;28;20443;-60
2022/02/24 11:37:36;;;;;;;4.03;1.70;;;13.20;60.80;;;;;;4994412;28;20479;-60
2022/02/24 11:40:07;;;;;;;5.63;1.70;;;13.30;60.00;;;;;;4994051;28;20490;-60
2022/02/24 11:42:36;;;;;;;5.63;2.10;;;13.30;59.30;;;;;;4993782;28;21016;-60
2022/02/24 11:45:36;;;;;;;4.50;2.27;;;13.30;59.20;;;;;;4993776;28;20537;-61
2022/02/24 11:48:06;;;;;;;4.10;1.40;;;13.40;58.90;;;;;;4993773;28;20455;-60
2022/02/24 11:50:36;;;;;;;3.23;1.73;;;13.40;58.40;;;;;;4993572;28;20486;-60
2022/02/24 11:53:05;;;;;;;4.63;1.93;;;13.40;58.30;;;;;;4993343;28;20997;-59
2022/02/24 11:55:56;;;;;;;4.10;1.50;;;13.30;58.50;;;;;;4993402;28;20451;-60
2022/02/24 11:58:46;;;;;;;4.57;2.00;;;13.20;58.50;;;;;;4993688;28;20779;-61
2022/02/24 12:01:36;;;;;;;3.17;1.50;;;13.10;58.90;;;;;;4994744;28;20426;-61
2022/02/24 12:04:31;;;;;;;3.67;1.80;;;13.00;58.70;;;;;;4993869;28;20427;-60
2022/02/24 12:07:12;;;;;;;4.23;1.50;;;12.80;58.50;;;;;;4948427;28;20459;-60
2022/02/24 12:09:39;;;;;;;7.20;1.50;;;12.70;58.40;;;;;;4993527;28;20797;-60
2022/02/24 12:12:11;;;;;;;5.20;1.67;;;12.60;58.50;;;;;;4993253;28;20845;-59
2022/02/24 12:14:54;;;;;;;3.70;1.30;;;12.60;58.90;;;;;;4993234;28;20836;-60
2022/02/24 12:17:24;;;;;;;4.10;1.30;;;12.60;59.40;;;;;;4993210;28;20434;-60
2022/02/24 12:19:58;;;;;;;5.97;1.70;;;12.60;59.50;;;;;;4992991;28;20930;-59
2022/02/24 12:22:44;;;;;;;2.60;1.63;;;12.60;59.80;;;;;;4993455;28;20537;-61
2022/02/24 12:25:15;;;;;;;1.73;1.17;;;12.60;60.10;;;;;;4993095;28;20900;-60
2022/02/24 12:27:48;;;;;;;1.67;1.07;;;12.50;60.20;;;;;;4993399;28;20435;-60
2022/02/24 12:30:25;;;;;;;5.20;1.43;;;12.50;60.40;;;;;;4995469;28;20470;-60
2022/02/24 12:32:58;;;;;;;1.47;1.13;;;12.50;60.60;;;;;;4997246;28;20507;-60
2022/02/24 12:35:28;;;;;;;2.97;1.60;;;12.60;60.90;;;;;;4996777;28;20434;-60
2022/02/24 12:37:55;;;;;;;6.50;2.43;;;12.60;61.00;;;;;;4996380;28;20455;-60
2022/02/24 12:40:27;;;;;;;2.90;1.40;;;12.60;61.20;;;;;;4996827;28;20443;-60
2022/02/24 12:42:55;;;;;;;3.17;1.30;;;12.50;61.60;;;;;;4996713;28;20821;-60
2022/02/24 12:45:23;;;;;;;3.97;1.73;;;12.40;62.80;;;;;;4996784;28;20454;-60
2022/02/24 12:47:51;;;;;;;3.13;1.20;;;12.30;62.80;;;;;;4996802;28;20461;-60
2022/02/24 12:50:30;;;;;;;3.67;1.70;;;12.20;63.90;;;;;;4996387;28;21013;-61
2022/02/24 12:53:05;;;;;;;5.50;1.90;;;12.10;64.90;;;;;;4996310;28;20510;-60
2022/02/24 12:55:32;;;;;;;4.07;2.57;;;12.00;65.50;;;;;;4996788;28;20422;-60
2022/02/24 12:57:59;;;;;;;2.33;1.27;;;12.00;65.80;;;;;;4996430;28;20977;-60
2022/02/24 13:00:32;;;;;;;4.93;1.90;;;11.90;66.00;;;;;;4996637;28;20446;-60
2022/02/24 13:03:02;;;;;;;2.83;1.60;;;12.00;66.40;;;;;;4996475;28;20616;-60
2022/02/24 13:05:33;;;;;;;3.20;2.00;;;12.00;66.60;;;;;;4996573;28;20427;-61
2022/02/24 13:11:00;;;;;;;3.27;2.00;;;12.10;66.70;;;;;;4996441;28;20513;-60